Weather History for Tarboro, NC

Change the Weather History Date:

Tuesday, April 9, 2013

  Actual Average Record
Temperature  
Mean Temperature 72 °F -  
Max Temperature 85 °F 70 °F 88 °F (1954)
Min Temperature 59 °F 44 °F 26 °F (1990)
Cooling Degree Days 7    
Growing Degree Days 22 (Base 50)    
Moisture  
Dew Point 56 °F    
Average Humidity 59    
Maximum Humidity 90    
Minimum Humidity 32    
Precipitation  
Precipitation 0.00 in - - ()
Sea Level Pressure  
Sea Level Pressure 30.12 in    
Wind  
Wind Speed 7 mph (SSW)    
Max Wind Speed 14 mph    
Max Gust Speed 23 mph    
Visibility 10 miles    
Events      
Averages and records for this station are not official NWS values.
T = Trace of Precipitation, MM = Missing Value Source: NWS Daily Summary

Daily Weather History Graph

Daily Weather History Graph

Search for Another Location

Airport:

Trip Planner

Search our weather history database for the weather conditions in past years. The results will help you decide how hot, cold, wet, or windy it might be!

Date:

Astronomy

Apr. 09, 2013 Rise Set
Actual Time 6:44 AM EDT 7:38 PM EDT
Civil Twilight 6:18 AM EDT 8:05 PM EDT
Nautical Twilight 5:48 AM EDT 8:36 PM EDT
Astronomical Twilight 5:16 AM EDT 9:08 PM EDT
Moon 6:05 AM EDT (4/9) 7:12 PM EDT (4/9)
Length of Visible Light 13h 46m
Length of Day
12h 53m
Waning Crescent, 1% of the Moon is Illuminated
Apr 9
Waning Crescent
Apr 10
New
Apr 18
First Quarter
Apr 25
Full
May 2
Last Quarter

Hourly Weather History & Observations

Time (EDT) Temp. Heat Index Dew Point Humidity Pressure Visibility Wind Dir Wind Speed Gust Speed Precip Events Conditions
12:15 AM 65.5 °F - 53.1 °F 64% 30.13 in 10.0 mi SSW 10.4 mph - N/A   Clear
12:35 AM 65.3 °F - 53.4 °F 65% 30.12 in 10.0 mi South 8.1 mph - N/A   Clear
12:55 AM 64.9 °F - 53.8 °F 67% 30.12 in 10.0 mi South 6.9 mph - N/A   Clear
1:15 AM 64.6 °F - 54.1 °F 69% 30.12 in 10.0 mi South 8.1 mph - N/A   Clear
1:35 AM 64.2 °F - 54.7 °F 71% 30.13 in 10.0 mi SSW 6.9 mph - N/A   Clear
1:55 AM 63.9 °F - 55.4 °F 74% 30.13 in 10.0 mi SSW 9.2 mph - N/A   Clear
2:15 AM 63.7 °F - 55.8 °F 75% 30.13 in 10.0 mi SSW 8.1 mph - N/A   Clear
2:35 AM 63.3 °F - 56.1 °F 77% 30.12 in 10.0 mi SSW 6.9 mph - N/A   Clear
2:55 AM 63.1 °F - 56.3 °F 78% 30.12 in 10.0 mi SW 5.8 mph - N/A   Clear
3:15 AM 62.8 °F - 56.5 °F 80% 30.12 in 10.0 mi SW 4.6 mph - N/A   Clear
3:35 AM 62.2 °F - 56.5 °F 81% 30.12 in 10.0 mi SW 4.6 mph - N/A   Clear
3:55 AM 61.7 °F - 56.3 °F 82% 30.13 in 10.0 mi SSW 3.5 mph - N/A   Clear
4:15 AM 61.5 °F - 56.5 °F 83% 30.13 in 10.0 mi SSW 4.6 mph - N/A   Clear
4:35 AM 61.5 °F - 56.7 °F 84% 30.13 in 10.0 mi SSW 4.6 mph - N/A   Clear
4:55 AM 61.0 °F - 56.7 °F 86% 30.13 in 10.0 mi SSW 4.6 mph - N/A   Clear
5:15 AM 60.8 °F - 56.7 °F 86% 30.13 in 10.0 mi SSW 3.5 mph - N/A   Clear
5:35 AM 60.8 °F - 56.8 °F 87% 30.14 in 10.0 mi SSW 4.6 mph - N/A   Clear
5:55 AM 60.6 °F - 56.8 °F 87% 30.14 in 10.0 mi SSW 3.5 mph - N/A   Clear
6:15 AM 60.3 °F - 56.8 °F 88% 30.15 in 10.0 mi SSW 4.6 mph - N/A   Clear
6:35 AM 60.1 °F - 56.8 °F 89% 30.15 in 10.0 mi SSW 3.5 mph - N/A   Clear
6:55 AM 59.9 °F - 56.8 °F 90% 30.16 in 10.0 mi South 3.5 mph - N/A   Clear
7:15 AM 59.9 °F - 56.8 °F 90% 30.17 in 10.0 mi Calm Calm - N/A   Clear
7:35 AM 60.6 °F - 57.2 °F 88% 30.18 in 10.0 mi SSW 4.6 mph - N/A   Clear
7:55 AM 61.9 °F - 57.9 °F 87% 30.18 in 10.0 mi SSW 5.8 mph - N/A   Clear
8:15 AM 63.1 °F - 58.5 °F 85% 30.18 in 10.0 mi SSW 6.9 mph - N/A   Clear
8:35 AM 64.8 °F - 59.0 °F 82% 30.18 in 10.0 mi SSW 8.1 mph - N/A   Clear
8:55 AM 66.4 °F - 59.4 °F 78% 30.18 in 10.0 mi WSW 10.4 mph 23.0 mph N/A   Clear
9:15 AM 67.6 °F - 59.5 °F 75% 30.18 in 10.0 mi SW 6.9 mph - N/A   Clear
9:35 AM 69.4 °F - 59.4 °F 70% 30.18 in 10.0 mi SW 10.4 mph 16.1 mph N/A   Clear
9:55 AM 71.1 °F - 59.4 °F 66% 30.18 in 10.0 mi WSW 9.2 mph - N/A   Clear
10:15 AM 72.7 °F - 59.2 °F 62% 30.18 in 10.0 mi SW 8.1 mph - N/A   Clear
10:35 AM 74.1 °F - 58.8 °F 59% 30.18 in 10.0 mi WSW 10.4 mph - N/A   Clear
10:55 AM 75.0 °F - 57.9 °F 55% 30.18 in 10.0 mi West 6.9 mph 10.4 mph N/A   Clear
11:15 AM 76.3 °F - 58.5 °F 54% 30.18 in 10.0 mi SW 9.2 mph - N/A   Clear
11:35 AM 77.4 °F - 58.1 °F 51% 30.17 in 10.0 mi WSW 8.1 mph - N/A   Clear
11:55 AM 78.4 °F - 58.1 °F 50% 30.16 in 10.0 mi SSW 8.1 mph - N/A   Clear
12:15 PM 79.3 °F - 57.6 °F 47% 30.15 in 10.0 mi SW 5.8 mph - N/A   Clear
12:35 PM 80.4 °F 80.7 °F 57.4 °F 45% 30.15 in 10.0 mi WSW 6.9 mph - N/A   Clear
12:55 PM 81.3 °F 81.2 °F 56.8 °F 43% 30.14 in 10.0 mi WSW 8.1 mph - N/A   Clear
1:15 PM 82.0 °F 81.6 °F 56.3 °F 41% 30.13 in 10.0 mi SSW 8.1 mph - N/A   Clear
1:35 PM 82.8 °F 82.0 °F 55.4 °F 39% 30.13 in 10.0 mi WSW 5.8 mph - N/A   Clear
1:55 PM 83.5 °F 82.2 °F 53.6 °F 36% 30.12 in 10.0 mi SSW 4.6 mph - N/A   Clear
2:15 PM 83.8 °F - 52.5 °F 34% 30.11 in 10.0 mi West 5.8 mph - N/A   Clear
2:35 PM 84.4 °F - 52.0 °F 33% 30.10 in 10.0 mi SW 5.8 mph - N/A   Scattered Clouds
2:55 PM 84.7 °F - 52.0 °F 32% 30.10 in 10.0 mi SSW 8.1 mph - N/A   Clear
3:15 PM 84.9 °F - 51.8 °F 32% 30.09 in 10.0 mi WSW 4.6 mph 9.2 mph N/A   Scattered Clouds
3:35 PM 84.4 °F - 52.2 °F 33% 30.09 in 10.0 mi SSW 9.2 mph - N/A   Scattered Clouds
3:55 PM 84.7 °F - 52.9 °F 33% 30.08 in 10.0 mi SSW 6.9 mph 16.1 mph N/A   Scattered Clouds
4:15 PM 85.5 °F 83.7 °F 53.4 °F 33% 30.07 in 10.0 mi SSW 8.1 mph - N/A   Scattered Clouds
4:35 PM 85.3 °F - 52.9 °F 33% 30.06 in 10.0 mi SW 6.9 mph - N/A   Clear
4:55 PM 83.8 °F - 52.9 °F 34% 30.07 in 10.0 mi SW 11.5 mph - N/A   Scattered Clouds
5:15 PM 83.7 °F 82.3 °F 53.1 °F 35% 30.06 in 10.0 mi SW 11.5 mph 17.3 mph N/A   Scattered Clouds
5:35 PM 84.0 °F - 52.9 °F 34% 30.06 in 10.0 mi SW 13.8 mph - N/A   Clear
5:55 PM 83.5 °F - 52.9 °F 35% 30.06 in 10.0 mi SW 8.1 mph - N/A   Scattered Clouds
6:15 PM 82.9 °F 81.8 °F 53.2 °F 36% 30.06 in 10.0 mi SW 10.4 mph 17.3 mph N/A   Clear
6:35 PM 82.0 °F 81.3 °F 54.0 °F 38% 30.06 in 10.0 mi SSW 8.1 mph - N/A   Clear
6:55 PM 81.3 °F 80.8 °F 54.1 °F 39% 30.06 in 10.0 mi SW 9.2 mph - N/A   Clear
7:15 PM 80.2 °F 80.2 °F 54.5 °F 41% 30.06 in 10.0 mi SSW 5.8 mph - N/A   Clear
7:35 PM 79.0 °F - 54.9 °F 43% 30.07 in 10.0 mi SSW 5.8 mph - N/A   Clear
7:55 PM 77.7 °F - 55.0 °F 45% 30.07 in 10.0 mi SSW 5.8 mph - N/A   Clear
8:15 PM 76.8 °F - 55.4 °F 47% 30.07 in 10.0 mi South 5.8 mph - N/A   Clear
8:35 PM 75.9 °F - 55.4 °F 49% 30.08 in 10.0 mi SSW 5.8 mph - N/A   Clear
8:55 PM 75.6 °F - 55.6 °F 50% 30.08 in 10.0 mi SSW 5.8 mph - N/A   Clear
9:15 PM 75.0 °F - 55.8 °F 51% 30.09 in 10.0 mi SSW 6.9 mph - N/A   Clear
9:35 PM 74.5 °F - 55.8 °F 52% 30.09 in 10.0 mi SSW 6.9 mph - N/A   Clear
9:55 PM 73.9 °F - 55.9 °F 53% 30.10 in 10.0 mi SSW 4.6 mph - N/A   Clear
10:15 PM 73.0 °F - 56.1 °F 55% 30.10 in 10.0 mi SSW 5.8 mph - N/A   Clear
10:35 PM 72.7 °F - 56.3 °F 56% 30.10 in 10.0 mi South 4.6 mph - N/A   Clear
10:55 PM 72.0 °F - 56.3 °F 58% 30.10 in 10.0 mi South 4.6 mph - N/A   Clear
11:15 PM 70.9 °F - 56.8 °F 61% 30.10 in 10.0 mi South 6.9 mph - N/A   Clear
11:35 PM 70.7 °F - 57.2 °F 62% 30.09 in 10.0 mi South 6.9 mph - N/A   Clear
11:55 PM 70.3 °F - 57.4 °F 63% 30.09 in 10.0 mi South 8.1 mph - N/A   Clear